createdAt,value
2022-09-30T00:00:33.327Z,28.6
2022-09-30T00:01:35.830Z,28.6
2022-09-30T00:02:38.527Z,28.4
2022-09-30T00:03:40.850Z,28.3
2022-09-30T00:04:43.325Z,28.3
2022-09-30T00:05:45.791Z,28.9
2022-09-30T00:06:48.013Z,28.4
2022-09-30T00:07:50.482Z,28.2
2022-09-30T00:08:52.688Z,28.4
2022-09-30T00:09:54.877Z,28.7
2022-09-30T00:10:57.216Z,28.7
2022-09-30T00:11:59.682Z,28.3
2022-09-30T00:13:02.181Z,28.8
2022-09-30T00:14:04.679Z,28.5
2022-09-30T00:15:06.899Z,28.7
2022-09-30T00:16:09.428Z,29
2022-09-30T00:17:11.995Z,28.6
2022-09-30T00:18:14.182Z,28.5
2022-09-30T00:19:16.381Z,29
2022-09-30T00:20:18.587Z,28.7
2022-09-30T00:21:21.399Z,28.6
2022-09-30T00:22:23.645Z,28.5
2022-09-30T00:23:25.833Z,28.4
2022-09-30T00:24:28.305Z,28.6
2022-09-30T00:25:30.497Z,28.7
2022-09-30T00:26:33.002Z,28.9
2022-09-30T00:27:35.465Z,29
2022-09-30T00:28:37.666Z,29
2022-09-30T00:29:40.156Z,28.8
2022-09-30T00:30:42.633Z,28.6
2022-09-30T00:31:44.993Z,28.6
2022-09-30T00:32:47.738Z,28.8
2022-09-30T00:33:50.212Z,28.8
2022-09-30T00:34:52.142Z,28.9
2022-09-30T00:35:54.041Z,28.7
2022-09-30T00:36:56.223Z,29
2022-09-30T00:37:58.783Z,28.6
2022-09-30T00:39:00.943Z,28.9
2022-09-30T00:40:02.868Z,28.6
2022-09-30T00:41:04.782Z,28.5
2022-09-30T00:42:07.022Z,29
2022-09-30T00:43:09.202Z,28.8
2022-09-30T00:44:11.402Z,28.6
2022-09-30T00:45:13.896Z,29
2022-09-30T00:46:16.397Z,28.6
2022-09-30T00:47:19.227Z,28.7
2022-09-30T00:48:21.691Z,28.6
2022-09-30T00:49:24.167Z,28.9
2022-09-30T00:50:26.643Z,28.6
2022-09-30T00:51:29.125Z,29
2022-09-30T00:52:31.360Z,28.7
2022-09-30T00:53:33.868Z,28.5
2022-09-30T00:54:36.345Z,28.9
2022-09-30T00:55:38.646Z,29.1
2022-09-30T00:56:40.848Z,28.8
2022-09-30T00:57:43.220Z,28.9
2022-09-30T00:58:45.690Z,28.7
2022-09-30T00:59:47.902Z,29.1
2022-09-30T01:00:50.449Z,28.6
2022-09-30T01:01:53.411Z,28.8
2022-09-30T01:02:56.263Z,28.8
2022-09-30T01:03:58.460Z,28.8
2022-09-30T01:05:00.932Z,29
2022-09-30T01:06:03.122Z,29
2022-09-30T01:07:05.596Z,28.7
2022-09-30T01:08:08.084Z,28.8
2022-09-30T01:09:10.521Z,28.7
2022-09-30T01:10:13.090Z,29
2022-09-30T01:11:15.569Z,28.8
2022-09-30T01:12:17.490Z,28.7
2022-09-30T01:13:20.018Z,29.2
2022-09-30T01:14:22.216Z,28.7
2022-09-30T01:15:24.405Z,28.7
2022-09-30T01:16:26.441Z,28.9
2022-09-30T01:17:29.294Z,28.7
2022-09-30T01:18:31.227Z,28.8
2022-09-30T01:19:33.710Z,28.6
2022-09-30T01:20:36.176Z,29.2
2022-09-30T01:21:38.649Z,28.8
2022-09-30T01:22:42.286Z,28.7
2022-09-30T01:23:44.652Z,28.7
2022-09-30T01:24:46.600Z,28.6
2022-09-30T01:25:49.062Z,28.7
2022-09-30T01:26:51.264Z,29.1
2022-09-30T01:27:53.744Z,29
2022-09-30T01:28:56.287Z,29
2022-09-30T01:29:58.486Z,29.1
2022-09-30T01:31:01.041Z,29.1
2022-09-30T01:32:03.834Z,28.7
2022-09-30T01:33:06.006Z,28.6
2022-09-30T01:34:08.477Z,28.6
2022-09-30T01:35:10.941Z,28.8
2022-09-30T01:36:13.138Z,28.9
2022-09-30T01:37:15.604Z,28.9
2022-09-30T01:38:17.808Z,29.2
2022-09-30T01:39:20.292Z,29
2022-09-30T01:40:23.626Z,28.7
2022-09-30T01:41:26.093Z,29.1
2022-09-30T01:42:28.562Z,28.8
2022-09-30T01:43:31.042Z,28.9
2022-09-30T01:44:33.559Z,29
2022-09-30T01:45:35.760Z,29
2022-09-30T01:46:38.308Z,28.6
2022-09-30T01:47:40.809Z,28.7
2022-09-30T01:48:43.280Z,28.6
2022-09-30T01:49:45.194Z,29.1
2022-09-30T01:50:47.670Z,28.8
2022-09-30T01:51:50.136Z,28.6
2022-09-30T01:52:52.324Z,29.2
2022-09-30T01:53:54.524Z,28.6
2022-09-30T01:54:56.995Z,28.7
2022-09-30T01:55:59.576Z,28.9
2022-09-30T01:57:01.758Z,28.8
2022-09-30T01:58:03.954Z,29.1
2022-09-30T01:59:06.153Z,29
2022-09-30T02:00:08.672Z,29.1
2022-09-30T02:01:10.885Z,28.8
2022-09-30T02:02:13.699Z,28.6
2022-09-30T02:03:16.157Z,28.7
2022-09-30T02:04:18.629Z,29
2022-09-30T02:05:21.098Z,28.9
2022-09-30T02:06:23.598Z,28.8
2022-09-30T02:07:25.769Z,28.4
2022-09-30T02:08:27.969Z,29
2022-09-30T02:09:30.497Z,28.8
2022-09-30T02:10:32.960Z,28.9
2022-09-30T02:11:35.487Z,28.8
2022-09-30T02:12:38.010Z,28.5
2022-09-30T02:13:40.194Z,29.1
2022-09-30T02:14:42.375Z,28.7
2022-09-30T02:15:44.317Z,28.5
2022-09-30T02:16:46.236Z,29.2
2022-09-30T02:17:48.432Z,28.8
2022-09-30T02:18:50.914Z,28.6
2022-09-30T02:19:53.384Z,28.6
2022-09-30T02:20:55.583Z,28.9
2022-09-30T02:21:57.210Z,29.1
2022-09-30T02:22:59.394Z,29
2022-09-30T02:24:01.865Z,28.8
2022-09-30T02:25:03.772Z,28.7
2022-09-30T02:26:06.017Z,29.2
2022-09-30T02:27:08.563Z,28.9
2022-09-30T02:28:11.025Z,29
2022-09-30T02:29:13.509Z,28.9
2022-09-30T02:30:16.211Z,28.7
2022-09-30T02:31:18.751Z,29
2022-09-30T02:32:21.537Z,29
2022-09-30T02:33:24.026Z,28.7
2022-09-30T02:34:26.509Z,29.2
2022-09-30T02:35:28.706Z,28.9
2022-09-30T02:36:31.174Z,29.2
2022-09-30T02:37:33.655Z,28.8
2022-09-30T02:38:36.143Z,29
2022-09-30T02:39:38.380Z,28.7
2022-09-30T02:40:40.845Z,28.9
2022-09-30T02:41:43.046Z,28.9
2022-09-30T02:42:45.289Z,29.2
2022-09-30T02:43:47.787Z,29.2
2022-09-30T02:44:49.983Z,28.9
2022-09-30T02:45:51.912Z,29
2022-09-30T02:46:54.522Z,29.4
2022-09-30T02:47:57.092Z,29.3
2022-09-30T02:48:59.564Z,29.1
2022-09-30T02:50:01.499Z,29
2022-09-30T02:51:03.127Z,28.9
2022-09-30T02:52:05.608Z,28.9
2022-09-30T02:53:07.806Z,28.9
2022-09-30T02:54:10.282Z,28.7
2022-09-30T02:55:12.748Z,28.8
2022-09-30T02:56:15.250Z,28.8
2022-09-30T02:57:17.728Z,28.6
2022-09-30T02:58:20.241Z,28.7
2022-09-30T02:59:22.148Z,28.8
2022-09-30T03:00:25.241Z,28.6
2022-09-30T03:01:26.874Z,29
2022-09-30T03:02:29.220Z,28.7
2022-09-30T03:03:31.115Z,29.1
2022-09-30T03:04:33.602Z,29.1
2022-09-30T03:05:36.092Z,28.9
2022-09-30T03:06:38.278Z,28.6
2022-09-30T03:07:40.764Z,29
2022-09-30T03:08:42.965Z,28.5
2022-09-30T03:09:45.510Z,28.8
2022-09-30T03:10:48.334Z,28.8
2022-09-30T03:11:50.563Z,28.5
2022-09-30T03:12:52.767Z,28.7
2022-09-30T03:13:55.408Z,28.7
2022-09-30T03:14:57.592Z,28.8
2022-09-30T03:16:00.145Z,28.3
2022-09-30T03:17:02.915Z,28.4
2022-09-30T03:18:04.877Z,28.9
2022-09-30T03:19:07.345Z,28.6
2022-09-30T03:20:09.250Z,28.7
2022-09-30T03:21:11.457Z,28.6
2022-09-30T03:22:13.952Z,28.4
2022-09-30T03:23:16.140Z,28.4
2022-09-30T03:24:18.609Z,28.5
2022-09-30T03:25:20.515Z,28.5
2022-09-30T03:26:23.006Z,28.5
2022-09-30T03:27:25.467Z,28.6
2022-09-30T03:28:27.987Z,28.2
2022-09-30T03:29:30.627Z,28.3
2022-09-30T03:30:33.098Z,28.2
2022-09-30T03:31:35.620Z,28.2
2022-09-30T03:32:38.486Z,28.5
2022-09-30T03:33:40.711Z,27.9
2022-09-30T03:34:42.909Z,28.6
2022-09-30T03:35:45.081Z,28.2
2022-09-30T03:36:47.569Z,28.5
2022-09-30T03:37:49.500Z,28.5
2022-09-30T03:38:51.705Z,28.4
2022-09-30T03:39:53.901Z,28.4
2022-09-30T03:40:56.104Z,28.4
2022-09-30T03:41:58.575Z,28
2022-09-30T03:43:01.049Z,28.3
2022-09-30T03:44:03.530Z,28.2
2022-09-30T03:45:05.777Z,28.2
2022-09-30T03:46:07.992Z,28.1
2022-09-30T03:47:10.582Z,28.4
2022-09-30T03:48:13.054Z,28.3
2022-09-30T03:49:15.555Z,28.1
2022-09-30T03:50:18.026Z,28.5
2022-09-30T03:51:20.510Z,28.3
2022-09-30T03:52:22.721Z,28.3
2022-09-30T03:53:25.195Z,28.4
2022-09-30T03:54:27.392Z,28.2
2022-09-30T03:55:29.315Z,28.1
2022-09-30T03:56:31.229Z,28.1
2022-09-30T03:57:33.731Z,28.1
2022-09-30T03:58:35.937Z,28.1
2022-09-30T03:59:38.405Z,28.1
2022-09-30T04:00:40.985Z,28.3
2022-09-30T04:01:43.750Z,28.1
2022-09-30T04:02:46.154Z,28.2
2022-09-30T04:03:48.058Z,28.2
2022-09-30T04:04:50.579Z,27.9
2022-09-30T04:05:53.045Z,28
2022-09-30T04:06:55.237Z,28.2
2022-09-30T04:07:57.738Z,28.2
2022-09-30T04:09:00.258Z,28.1
2022-09-30T04:10:02.638Z,27.9
2022-09-30T04:11:04.826Z,27.9
2022-09-30T04:12:06.996Z,28.1
2022-09-30T04:13:09.196Z,28.1
2022-09-30T04:14:11.396Z,28.2
2022-09-30T04:15:13.590Z,28.4
2022-09-30T04:16:16.183Z,28.1
2022-09-30T04:17:19.103Z,28.1
2022-09-30T04:18:21.370Z,28.2
2022-09-30T04:19:23.976Z,27.9
2022-09-30T04:20:26.376Z,28
2022-09-30T04:21:28.846Z,28
2022-09-30T04:22:30.467Z,28.3
2022-09-30T04:23:32.980Z,28.2
2022-09-30T04:24:35.172Z,28
2022-09-30T04:25:37.105Z,28
2022-09-30T04:26:39.580Z,28.2
2022-09-30T04:27:42.052Z,27.9
2022-09-30T04:28:44.537Z,28.1
2022-09-30T04:29:47.013Z,27.8
2022-09-30T04:30:48.945Z,28
2022-09-30T04:31:51.279Z,28.2
2022-09-30T04:32:54.163Z,28.1
2022-09-30T04:33:56.678Z,27.9
2022-09-30T04:34:59.140Z,27.9
2022-09-30T04:36:01.423Z,28.2
2022-09-30T04:37:07.372Z,28.1
2022-09-30T04:38:08.881Z,27.9
2022-09-30T04:39:11.374Z,27.9
2022-09-30T04:40:13.912Z,27.9
2022-09-30T04:41:16.120Z,28.2
2022-09-30T04:42:18.627Z,28.1
2022-09-30T04:43:20.820Z,28
2022-09-30T04:44:23.294Z,28
2022-09-30T04:45:25.788Z,28
2022-09-30T04:46:28.450Z,27.9
2022-09-30T04:47:30.695Z,28
2022-09-30T04:48:33.160Z,28.1
2022-09-30T04:49:35.627Z,28.1
2022-09-30T04:50:37.920Z,27.9
2022-09-30T04:51:40.514Z,28.1
2022-09-30T04:52:42.748Z,28
2022-09-30T04:53:45.226Z,28
2022-09-30T04:54:47.448Z,28.1
2022-09-30T04:55:49.658Z,27.9
2022-09-30T04:56:52.142Z,28.2
2022-09-30T04:57:54.625Z,28.2
2022-09-30T04:58:56.839Z,28
2022-09-30T04:59:59.055Z,27.9
2022-09-30T05:01:01.567Z,27.8
2022-09-30T05:02:03.706Z,27.8
2022-09-30T05:03:06.651Z,28
2022-09-30T05:04:08.826Z,28
2022-09-30T05:05:10.730Z,28.1
2022-09-30T05:06:12.944Z,28.1
2022-09-30T05:07:15.173Z,27.9
2022-09-30T05:08:17.640Z,28
2022-09-30T05:09:20.314Z,27.9
2022-09-30T05:10:23.817Z,27.9
2022-09-30T05:11:26.301Z,27.9
2022-09-30T05:12:28.212Z,28
2022-09-30T05:13:30.112Z,28
2022-09-30T05:14:32.314Z,27.8
2022-09-30T05:15:34.513Z,27.8
2022-09-30T05:16:37.029Z,27.8
2022-09-30T05:17:39.659Z,27.7
2022-09-30T05:18:41.885Z,27.9
2022-09-30T05:19:44.081Z,28
2022-09-30T05:20:45.721Z,28.2
2022-09-30T05:21:47.933Z,27.7
2022-09-30T05:22:50.168Z,27.9
2022-09-30T05:23:52.674Z,27.7
2022-09-30T05:24:54.624Z,27.8
2022-09-30T05:25:57.117Z,27.9
2022-09-30T05:26:59.600Z,27.9
2022-09-30T05:28:02.095Z,27.9
2022-09-30T05:29:04.293Z,27.6
2022-09-30T05:30:06.496Z,28.1
2022-09-30T05:31:09.065Z,27.9
2022-09-30T05:32:11.855Z,27.8
2022-09-30T05:33:13.801Z,27.8
2022-09-30T05:34:16.323Z,28.1
2022-09-30T05:35:18.523Z,28
2022-09-30T05:36:20.148Z,27.8
2022-09-30T05:37:22.335Z,28
2022-09-30T05:38:24.852Z,27.8
2022-09-30T05:39:27.335Z,27.9
2022-09-30T05:40:29.269Z,27.9
2022-09-30T05:41:31.781Z,28
2022-09-30T05:42:34.256Z,27.9
2022-09-30T05:43:36.196Z,27.9
2022-09-30T05:44:38.097Z,27.7
2022-09-30T05:45:40.035Z,27.8
2022-09-30T05:46:42.292Z,27.9
2022-09-30T05:47:44.868Z,28
2022-09-30T05:48:47.336Z,28
2022-09-30T05:49:53.056Z,28.2
2022-09-30T05:50:54.817Z,27.6
2022-09-30T05:51:56.461Z,27.7
2022-09-30T05:52:58.950Z,28
2022-09-30T05:54:01.549Z,27.9
2022-09-30T05:55:03.489Z,27.8
2022-09-30T05:56:05.439Z,27.6
2022-09-30T05:57:07.716Z,27.8
2022-09-30T05:58:09.930Z,27.8
2022-09-30T05:59:12.124Z,27.9
2022-09-30T06:00:14.046Z,27.7
2022-09-30T06:01:16.263Z,27.5
2022-09-30T06:02:18.832Z,28
2022-09-30T06:03:21.189Z,28
2022-09-30T06:04:23.660Z,28.2
2022-09-30T06:05:25.898Z,27.7
2022-09-30T06:06:28.085Z,27.9
2022-09-30T06:07:30.561Z,27.9
2022-09-30T06:08:32.468Z,28
2022-09-30T06:09:35.202Z,27.9
2022-09-30T06:10:38.190Z,27.8
2022-09-30T06:11:40.406Z,27.8
2022-09-30T06:12:42.922Z,27.8
2022-09-30T06:13:45.406Z,27.8
2022-09-30T06:14:47.884Z,28.1
2022-09-30T06:15:50.124Z,27.9
2022-09-30T06:16:52.702Z,27.9
2022-09-30T06:17:55.596Z,28
2022-09-30T06:18:57.762Z,28
2022-09-30T06:19:59.961Z,27.6
2022-09-30T06:21:02.489Z,27.9
2022-09-30T06:22:04.960Z,27.8
2022-09-30T06:23:07.427Z,28.1
2022-09-30T06:24:09.354Z,27.9
2022-09-30T06:25:11.886Z,28
2022-09-30T06:26:14.380Z,27.7
2022-09-30T06:27:16.601Z,27.9
2022-09-30T06:28:18.819Z,27.9
2022-09-30T06:29:21.349Z,27.7
2022-09-30T06:30:23.881Z,27.8
2022-09-30T06:31:25.828Z,27.8
2022-09-30T06:32:28.303Z,27.8
2022-09-30T06:33:30.501Z,27.9
2022-09-30T06:34:32.984Z,28
2022-09-30T06:35:35.452Z,27.8
2022-09-30T06:36:37.786Z,27.7
2022-09-30T06:37:40.249Z,27.8
2022-09-30T06:38:42.715Z,27.8
2022-09-30T06:39:45.185Z,27.9
2022-09-30T06:40:47.461Z,28
2022-09-30T06:41:49.661Z,27.9
2022-09-30T06:42:52.142Z,27.7
2022-09-30T06:43:56.513Z,28.1
2022-09-30T06:44:59.075Z,28.1
2022-09-30T06:46:11.387Z,27.7
2022-09-30T06:47:12.656Z,28
2022-09-30T06:48:11.604Z,28.2
2022-09-30T06:49:14.445Z,27.6
2022-09-30T06:50:24.341Z,27.8
2022-09-30T06:51:21.355Z,28.2
2022-09-30T06:52:23.611Z,28
2022-09-30T06:53:25.810Z,27.7
2022-09-30T06:54:28.025Z,27.8
2022-09-30T06:55:30.231Z,27.6
2022-09-30T06:56:32.798Z,27.3
2022-09-30T06:57:35.010Z,28
2022-09-30T06:58:37.193Z,27.9
2022-09-30T06:59:39.432Z,27.7
2022-09-30T07:00:41.945Z,27.8
2022-09-30T07:01:44.142Z,27.7
2022-09-30T07:02:47.037Z,27.8
2022-09-30T07:03:52.689Z,27.7
2022-09-30T07:04:54.231Z,27.5
2022-09-30T07:05:56.762Z,27.8
2022-09-30T07:06:58.680Z,27.9
2022-09-30T07:08:00.626Z,28
2022-09-30T07:09:02.895Z,27.8
2022-09-30T07:10:05.504Z,27.9
2022-09-30T07:11:07.426Z,27.5
2022-09-30T07:12:09.977Z,27.8
2022-09-30T07:13:12.463Z,27.1
2022-09-30T07:14:14.653Z,27.8
2022-09-30T07:15:17.179Z,27.6
2022-09-30T07:16:19.457Z,27.8
2022-09-30T07:17:22.181Z,27.5
2022-09-30T07:18:24.389Z,27.4
2022-09-30T07:19:26.586Z,27.6
2022-09-30T07:20:28.790Z,28
2022-09-30T07:21:30.992Z,27.9
2022-09-30T07:22:33.205Z,27.7
2022-09-30T07:23:35.469Z,27.9
2022-09-30T07:24:37.963Z,28
2022-09-30T07:25:40.174Z,27.4
2022-09-30T07:26:42.378Z,27.7
2022-09-30T07:27:44.906Z,27.6
2022-09-30T07:28:47.466Z,27.4
2022-09-30T07:30:08.014Z,28
2022-09-30T07:31:08.047Z,27.9
2022-09-30T07:31:59.709Z,27.6
2022-09-30T07:33:02.255Z,27.8
2022-09-30T07:34:04.792Z,27.8
2022-09-30T07:35:06.967Z,27.6
2022-09-30T07:36:09.465Z,27.5
2022-09-30T07:37:11.639Z,27.6
2022-09-30T07:38:13.832Z,27.4
2022-09-30T07:39:15.810Z,27.6
2022-09-30T07:40:17.808Z,27.6
2022-09-30T07:41:19.719Z,27.8
2022-09-30T07:42:22.838Z,27.9
2022-09-30T07:43:25.722Z,27.7
2022-09-30T07:44:27.931Z,27.7
2022-09-30T07:45:30.489Z,27.7
2022-09-30T07:46:33.104Z,27.5
2022-09-30T07:47:35.307Z,27.9
2022-09-30T07:48:37.256Z,27.8
2022-09-30T07:49:39.726Z,27.3
2022-09-30T07:50:41.655Z,27.5
2022-09-30T07:51:43.585Z,27.9
2022-09-30T07:52:45.810Z,27.7
2022-09-30T07:53:48.288Z,27.5
2022-09-30T07:54:50.951Z,27.4
2022-09-30T07:55:53.462Z,27.8
2022-09-30T07:57:09.557Z,28
2022-09-30T07:58:00.931Z,27.8
2022-09-30T07:59:03.207Z,27.7
2022-09-30T08:00:23.389Z,27.9
2022-09-30T08:01:10.499Z,27.5
2022-09-30T08:02:13.577Z,27.6
2022-09-30T08:03:15.946Z,27.6
2022-09-30T08:04:18.184Z,27.8
2022-09-30T08:05:20.664Z,27.4
2022-09-30T08:06:22.869Z,27.7
2022-09-30T08:07:25.080Z,27.7
2022-09-30T08:08:26.990Z,27.5
2022-09-30T08:09:29.803Z,27.8
2022-09-30T08:10:33.468Z,27.7
2022-09-30T08:11:35.679Z,27.4
2022-09-30T08:12:37.890Z,27.8
2022-09-30T08:13:40.393Z,28
2022-09-30T08:14:42.648Z,27.3
2022-09-30T08:15:45.138Z,27.4
2022-09-30T08:16:47.356Z,27.9
2022-09-30T08:17:49.388Z,27.9
2022-09-30T08:18:51.580Z,27.6
2022-09-30T08:19:53.809Z,27.5
2022-09-30T08:20:55.742Z,27.6
2022-09-30T08:21:58.330Z,27.9
2022-09-30T08:23:00.867Z,27.7
2022-09-30T08:24:03.409Z,28
2022-09-30T08:25:05.898Z,27.6
2022-09-30T08:26:07.874Z,27.9
2022-09-30T08:27:10.105Z,27.9
2022-09-30T08:28:13.024Z,27.6
2022-09-30T08:29:20.261Z,27.6
2022-09-30T08:30:20.496Z,27.9
2022-09-30T08:31:22.977Z,27.5
2022-09-30T08:32:25.773Z,27.8
2022-09-30T08:33:28.273Z,27.7
2022-09-30T08:34:30.178Z,27.4
2022-09-30T08:35:32.397Z,27.8
2022-09-30T08:36:34.610Z,27.8
2022-09-30T08:37:37.113Z,27.5
2022-09-30T08:38:39.635Z,27.9
2022-09-30T08:39:41.547Z,27.3
2022-09-30T08:40:43.751Z,27.5
2022-09-30T08:41:45.990Z,28
2022-09-30T08:42:51.597Z,27.5
2022-09-30T08:43:53.493Z,27.8
2022-09-30T08:44:55.724Z,27.7
2022-09-30T08:45:58.110Z,27.6
2022-09-30T08:47:00.822Z,27.6
2022-09-30T08:48:03.124Z,27.6
2022-09-30T08:49:06.054Z,27.6
2022-09-30T08:50:08.287Z,27.7
2022-09-30T08:51:10.797Z,28.2
2022-09-30T08:52:19.792Z,27.7
2022-09-30T08:53:18.262Z,27.5
2022-09-30T08:54:20.442Z,27.4
2022-09-30T08:55:22.370Z,27.5
2022-09-30T08:56:24.304Z,28.2
2022-09-30T08:57:26.834Z,27.7
2022-09-30T08:58:29.023Z,27.6
2022-09-30T08:59:31.222Z,28
2022-09-30T09:00:33.145Z,27.6
2022-09-30T09:01:35.721Z,27.4
2022-09-30T09:02:38.840Z,28
2022-09-30T09:03:41.322Z,27.8
2022-09-30T09:04:43.522Z,27.8
2022-09-30T09:05:47.359Z,27.8
2022-09-30T09:06:51.026Z,27.2
2022-09-30T09:07:53.253Z,27.6
2022-09-30T09:08:55.441Z,27.4
2022-09-30T09:09:57.649Z,27.7
2022-09-30T09:11:00.126Z,27.5
2022-09-30T09:12:02.314Z,27.6
2022-09-30T09:13:04.281Z,27.4
2022-09-30T09:14:06.480Z,27.6
2022-09-30T09:15:08.960Z,27.5
2022-09-30T09:16:11.193Z,27.8
2022-09-30T09:17:15.764Z,27.5
2022-09-30T09:18:22.991Z,27.4
2022-09-30T09:19:23.765Z,27.8
2022-09-30T09:20:26.765Z,28
2022-09-30T09:21:29.000Z,28.4
2022-09-30T09:22:30.626Z,27.4
2022-09-30T09:23:33.265Z,28
2022-09-30T09:24:35.463Z,27.7
2022-09-30T09:25:37.943Z,27.7
2022-09-30T09:26:40.485Z,27.7
2022-09-30T09:27:42.723Z,27.9
2022-09-30T09:28:47.193Z,27.9
2022-09-30T09:29:50.519Z,28.1
2022-09-30T09:30:52.720Z,28
2022-09-30T09:31:54.987Z,27.7
2022-09-30T09:32:57.303Z,27.9
2022-09-30T09:33:59.502Z,27.5
2022-09-30T09:35:01.712Z,27.5
2022-09-30T09:36:04.254Z,27.4
2022-09-30T09:37:06.192Z,27.7
2022-09-30T09:38:08.388Z,28
2022-09-30T09:39:10.931Z,27.6
2022-09-30T09:40:12.591Z,27.7
2022-09-30T09:41:14.806Z,27.7
2022-09-30T09:42:16.762Z,27.6
2022-09-30T09:43:19.105Z,27.8
2022-09-30T09:44:26.109Z,27.7
2022-09-30T09:45:28.353Z,28
2022-09-30T09:46:30.654Z,27.7
2022-09-30T09:47:32.841Z,27.9
2022-09-30T09:48:34.480Z,27.9
2022-09-30T09:49:36.957Z,27.9
2022-09-30T09:50:42.592Z,27.6
2022-09-30T09:51:45.099Z,27.6
2022-09-30T09:52:47.041Z,27.8
2022-09-30T09:53:49.520Z,27.7
2022-09-30T09:54:51.742Z,27.4
2022-09-30T09:55:54.220Z,27.8
2022-09-30T09:56:56.125Z,27.8
2022-09-30T09:57:58.612Z,28
2022-09-30T09:59:00.524Z,27.8
2022-09-30T10:00:02.929Z,27.9
2022-09-30T10:01:07.509Z,27.8
2022-09-30T10:02:10.639Z,27.5
2022-09-30T10:03:13.060Z,27.6
2022-09-30T10:04:15.274Z,27.6
2022-09-30T10:05:18.035Z,27.8
2022-09-30T10:06:20.244Z,27.6
2022-09-30T10:07:22.781Z,27.8
2022-09-30T10:08:25.252Z,27.5
2022-09-30T10:09:27.725Z,27.6
2022-09-30T10:10:30.218Z,27.8
2022-09-30T10:11:32.411Z,27.5
2022-09-30T10:12:34.888Z,27.4
2022-09-30T10:13:37.358Z,27.9
2022-09-30T10:14:39.830Z,27.9
2022-09-30T10:15:42.125Z,27.7
2022-09-30T10:16:44.579Z,28.1
2022-09-30T10:17:46.505Z,27.7
2022-09-30T10:18:48.991Z,27.5
2022-09-30T10:19:51.165Z,27.7
2022-09-30T10:20:53.089Z,27.5
2022-09-30T10:21:56.833Z,27.7
2022-09-30T10:22:59.977Z,27.8
2022-09-30T10:24:02.227Z,27.5
2022-09-30T10:25:04.436Z,27.8
2022-09-30T10:26:06.626Z,27.5
2022-09-30T10:27:08.855Z,27.5
2022-09-30T10:28:11.362Z,27.8
2022-09-30T10:29:13.931Z,27.7
2022-09-30T10:30:16.557Z,27.9
2022-09-30T10:31:19.121Z,27.6
2022-09-30T10:32:21.427Z,28.1
2022-09-30T10:33:24.056Z,27.8
2022-09-30T10:34:26.528Z,27.7
2022-09-30T10:35:28.743Z,27.6
2022-09-30T10:36:31.260Z,27.6
2022-09-30T10:37:33.492Z,27.7
2022-09-30T10:38:36.094Z,27.6
2022-09-30T10:39:38.018Z,27.5
2022-09-30T10:40:39.644Z,28
2022-09-30T10:41:41.871Z,27.8
2022-09-30T10:42:43.786Z,27.9
2022-09-30T10:43:46.014Z,27.6
2022-09-30T10:44:48.222Z,27.3
2022-09-30T10:46:07.189Z,27.7
2022-09-30T10:46:55.507Z,27.7
2022-09-30T10:47:58.192Z,28
2022-09-30T10:49:00.666Z,27.5
2022-09-30T10:50:02.585Z,27.7
2022-09-30T10:51:04.514Z,28
2022-09-30T10:52:06.711Z,27.8
2022-09-30T10:53:09.183Z,28.2
2022-09-30T10:54:11.700Z,27.9
2022-09-30T10:55:16.884Z,27.8
2022-09-30T10:56:18.590Z,27.8
2022-09-30T10:57:20.863Z,27.8
2022-09-30T10:58:23.072Z,28
2022-09-30T10:59:25.266Z,27.6
2022-09-30T11:00:27.748Z,28
2022-09-30T11:01:30.470Z,27.5
2022-09-30T11:02:33.937Z,27.6
2022-09-30T11:03:36.240Z,27.6
2022-09-30T11:04:38.864Z,27.6
2022-09-30T11:05:41.376Z,27.4
2022-09-30T11:06:43.306Z,27.7
2022-09-30T11:07:45.787Z,27.7
2022-09-30T11:08:47.990Z,27.4
2022-09-30T11:09:50.503Z,27.9
2022-09-30T11:10:53.011Z,27.5
2022-09-30T11:11:55.512Z,27.8
2022-09-30T11:12:58.093Z,27.6
2022-09-30T11:14:00.575Z,27.7
2022-09-30T11:15:02.212Z,27.7
2022-09-30T11:16:04.430Z,27.9
2022-09-30T11:17:07.350Z,27.6
2022-09-30T11:18:09.293Z,27.4
2022-09-30T11:19:11.837Z,27.9
2022-09-30T11:20:14.077Z,27.4
2022-09-30T11:21:16.384Z,28.1
2022-09-30T11:22:18.859Z,27.9
2022-09-30T11:23:21.354Z,27.4
2022-09-30T11:24:23.833Z,27.9
2022-09-30T11:25:26.372Z,27.5
2022-09-30T11:26:29.230Z,27.6
2022-09-30T11:27:32.204Z,27.7
2022-09-30T11:28:34.199Z,27.7
2022-09-30T11:29:36.708Z,27.9
2022-09-30T11:30:38.929Z,27.4
2022-09-30T11:31:41.196Z,27.6
2022-09-30T11:32:44.052Z,27.7
2022-09-30T11:33:46.582Z,27.4
2022-09-30T11:34:49.114Z,27.7
2022-09-30T11:35:51.695Z,27.4
2022-09-30T11:36:53.625Z,27.6
2022-09-30T11:37:55.828Z,27.6
2022-09-30T11:38:58.306Z,27.8
2022-09-30T11:40:00.527Z,27.7
2022-09-30T11:41:02.782Z,27.6
2022-09-30T11:42:05.258Z,27.6
2022-09-30T11:43:08.313Z,27.9
2022-09-30T11:44:10.654Z,27.7
2022-09-30T11:45:12.850Z,27.7
2022-09-30T11:46:15.146Z,27.4
2022-09-30T11:47:17.850Z,28
2022-09-30T11:48:19.767Z,28
2022-09-30T11:49:22.263Z,28
2022-09-30T11:50:24.774Z,27.6
2022-09-30T11:51:26.422Z,27.5
2022-09-30T11:52:28.625Z,27.9
2022-09-30T11:53:31.103Z,27.7
2022-09-30T11:54:33.583Z,27.5
2022-09-30T11:55:36.067Z,27.8
2022-09-30T11:56:38.388Z,27.9
2022-09-30T11:57:40.587Z,27.5
2022-09-30T11:58:42.811Z,27.7
2022-09-30T11:59:45.391Z,27.6
2022-09-30T12:00:47.538Z,27.8
2022-09-30T12:01:50.156Z,28
2022-09-30T12:02:52.696Z,27.6
2022-09-30T12:03:55.582Z,28
2022-09-30T12:04:57.836Z,27.6
2022-09-30T12:06:00.355Z,27.6
2022-09-30T12:07:02.562Z,27.6
2022-09-30T12:08:05.087Z,28.1
2022-09-30T12:09:07.568Z,27.8
2022-09-30T12:10:09.501Z,27.7
2022-09-30T12:11:12.074Z,27.6
2022-09-30T12:12:16.627Z,28
2022-09-30T12:13:19.599Z,27.7
2022-09-30T12:14:22.077Z,28
2022-09-30T12:15:24.568Z,27.5
2022-09-30T12:16:26.878Z,27.5
2022-09-30T12:17:31.677Z,27.6
2022-09-30T12:18:34.170Z,27.7
2022-09-30T12:19:36.374Z,27.7
2022-09-30T12:20:38.871Z,27.8
2022-09-30T12:21:41.373Z,27.9
2022-09-30T12:22:43.298Z,27.8
2022-09-30T12:23:45.542Z,28
2022-09-30T12:24:48.064Z,27.6
2022-09-30T12:25:49.980Z,27.6
2022-09-30T12:26:51.913Z,27.5
2022-09-30T12:27:53.960Z,27.8
2022-09-30T12:28:58.889Z,27.7
2022-09-30T12:30:01.510Z,27.8
2022-09-30T12:31:04.029Z,27.4
2022-09-30T12:32:06.324Z,27.6
2022-09-30T12:33:09.193Z,27.7
2022-09-30T12:34:10.836Z,27.7
2022-09-30T12:35:13.311Z,27.8
2022-09-30T12:36:15.818Z,27.4
2022-09-30T12:37:18.349Z,27.6
2022-09-30T12:38:20.534Z,27.4
2022-09-30T12:39:23.007Z,27.5
2022-09-30T12:40:25.493Z,27.6
2022-09-30T12:41:27.403Z,27.8
2022-09-30T12:42:29.354Z,28
2022-09-30T12:43:31.873Z,27.4
2022-09-30T12:44:34.096Z,27.7
2022-09-30T12:45:36.737Z,27.8
2022-09-30T12:46:39.568Z,27.8
2022-09-30T12:47:41.771Z,27.5
2022-09-30T12:48:43.977Z,27.5
2022-09-30T12:49:46.465Z,27.8
2022-09-30T12:50:48.688Z,27.9
2022-09-30T12:51:50.938Z,27.7
2022-09-30T12:52:53.136Z,27.5
2022-09-30T12:53:55.613Z,27.5
2022-09-30T12:54:58.099Z,27.9
2022-09-30T12:56:00.603Z,27.2
2022-09-30T12:57:03.120Z,27.6
2022-09-30T12:58:04.530Z,27.5
2022-09-30T12:59:06.901Z,27.7
2022-09-30T13:00:08.836Z,27.6
2022-09-30T13:01:10.959Z,27.5
2022-09-30T13:02:13.956Z,27.5
2022-09-30T13:03:16.585Z,27.6
2022-09-30T13:04:19.076Z,27.5
2022-09-30T13:05:20.995Z,27.7
2022-09-30T13:06:23.506Z,27.8
2022-09-30T13:07:25.765Z,27.4
2022-09-30T13:08:27.981Z,27.7
2022-09-30T13:09:30.195Z,27.7
2022-09-30T13:10:31.819Z,27.4
2022-09-30T13:11:34.300Z,27.8
2022-09-30T13:12:36.205Z,27.7
2022-09-30T13:13:38.696Z,28
2022-09-30T13:14:40.957Z,27.9
2022-09-30T13:15:43.441Z,28.2
2022-09-30T13:16:45.648Z,27.6
2022-09-30T13:17:48.355Z,27.8
2022-09-30T13:18:50.821Z,27.8
2022-09-30T13:19:53.049Z,27.6
2022-09-30T13:20:55.266Z,27.5
2022-09-30T13:21:57.374Z,27.4
2022-09-30T13:22:59.655Z,27.4
2022-09-30T13:24:02.158Z,28
2022-09-30T13:25:04.402Z,27.8
2022-09-30T13:26:06.783Z,27.7
2022-09-30T13:27:08.980Z,27.6
2022-09-30T13:28:11.499Z,27.8
2022-09-30T13:29:14.158Z,27.6
2022-09-30T13:30:16.423Z,27.8
2022-09-30T13:31:18.734Z,27.5
2022-09-30T13:32:21.708Z,27.5
2022-09-30T13:33:23.625Z,27.6
2022-09-30T13:34:26.098Z,27.8
2022-09-30T13:35:28.364Z,27.7
2022-09-30T13:36:31.102Z,27.7
2022-09-30T13:37:35.578Z,27.7
2022-09-30T13:38:37.826Z,27.9
2022-09-30T13:39:40.342Z,27.8
2022-09-30T13:41:01.074Z,28
2022-09-30T13:41:47.803Z,27.4
2022-09-30T13:42:49.721Z,27.6
2022-09-30T13:43:51.667Z,27.4
2022-09-30T13:44:57.194Z,27.8
2022-09-30T13:45:58.892Z,27.9
2022-09-30T13:47:01.218Z,27.3
2022-09-30T13:48:03.423Z,27.7
2022-09-30T13:49:05.396Z,27.4
2022-09-30T13:50:07.355Z,27.5
2022-09-30T13:51:09.748Z,27.2
2022-09-30T13:52:15.777Z,27.4
2022-09-30T13:53:16.947Z,27.6
2022-09-30T13:54:19.195Z,27.6
2022-09-30T13:55:21.438Z,27.9
2022-09-30T13:56:23.426Z,27.7
2022-09-30T13:57:25.946Z,27.4
2022-09-30T13:58:28.434Z,27.8